CheckWX is a tool to help pilots better visualize weather data.  It is not intended as a substitute for an official pre-flight weather briefing.

07:07:50 UTC

KDCA TAF
Ronald Reagan Washington National Airport
Washington, Virginia, USA
KDCA 310539Z 3106/0112 33006KT P6SM FEW060 SCT090 FM311300 35006KT P6SM SCT045 BKN060 FM311600 03004KT P6SM SCT030 BKN060 FM010000 09008KT 6SM -RA SCT008 OVC020 FM010300 07009KT 4SM -RA OVC008 FM010600 06007KT P6SM SCT008 BKN020 FM010900 04008KT P6SM SCT015 BKN035

Mar-31@
06:00 UTC

Mar-31 @ 06:00 UTC

Mar-31@
13:00 UTC

Mar-31 @ 13:00 UTC

TAF KDCA 310539Z 3106/0112 33006KT P6SM FEW060 SCT090
Wind
  • 330° at 6 KTS
Cloud Levels
  • Few at 6,000' AGL
  • Scattered at 9,000' AGL

Mar-31@
13:00 UTC

Mar-31 @ 13:00 UTC

Mar-31@
16:00 UTC

Mar-31 @ 16:00 UTC

FM311300 35006KT P6SM SCT045 BKN060

From

From Standard forecast or significant change

Wind
  • 350° at 6 KTS
Cloud Levels
  • Scattered at 4,500' AGL
  • Broken at 6,000' AGL

Mar-31@
16:00 UTC

Mar-31 @ 16:00 UTC

Apr-1@
00:00 UTC

Apr-1 @ 00:00 UTC

FM311600 03004KT P6SM SCT030 BKN060

From

From Standard forecast or significant change

Wind
  • 030° at 4 KTS
Cloud Levels
  • Scattered at 3,000' AGL
  • Broken at 6,000' AGL

Apr-1@
00:00 UTC

Apr-1 @ 00:00 UTC

Apr-1@
03:00 UTC

Apr-1 @ 03:00 UTC

FM010000 09008KT 6SM -RA SCT008 OVC020

From

From Standard forecast or significant change

Wind
  • 090° at 8 KTS
Conditions
Light Rain
Cloud Levels
  • Scattered at 800' AGL
  • Overcast at 2,000' AGL

Apr-1@
03:00 UTC

Apr-1 @ 03:00 UTC

Apr-1@
06:00 UTC

Apr-1 @ 06:00 UTC

FM010300 07009KT 4SM -RA OVC008

From

From Standard forecast or significant change

Wind
  • 070° at 9 KTS
Conditions
Light Rain
Cloud Levels
  • Overcast at 800' AGL

Apr-1@
06:00 UTC

Apr-1 @ 06:00 UTC

Apr-1@
09:00 UTC

Apr-1 @ 09:00 UTC

FM010600 06007KT P6SM SCT008 BKN020

From

From Standard forecast or significant change

Wind
  • 060° at 7 KTS
Cloud Levels
  • Scattered at 800' AGL
  • Broken at 2,000' AGL

Apr-1@
09:00 UTC

Apr-1 @ 09:00 UTC

Apr-1@
12:00 UTC

Apr-1 @ 12:00 UTC

FM010900 04008KT P6SM SCT015 BKN035

From

From Standard forecast or significant change

Wind
  • 040° at 8 KTS
Cloud Levels
  • Scattered at 1,500' AGL
  • Broken at 3,500' AGL